Freeburg, Illinois
Current Conditions -  °F | °C
As of 12:23 AM on Thursday 23 Oct 2014 (Local Time) from KBLV Reporting Station
Haze Haze  
Wind Chill: 41°   Ceiling: Unl
Heat Index: 41°   Visibility: 4mi
Dew Point: 41°   Wind: 0mph
Humidity: 100%   Direction: NA
Pressure: 30.23"   Gusts: NA
Location:  38.43°N, 89.91°W
Report Text: KBLV 230523Z AUTO 00000KT 4SM R14L/4500FT BR CLR 05/05 A3023 RMK AO2
Loading
Personal Weather Stations






























Interactive Weather Map
Tropical Storm Tracking
New forecast layout! Learn more

10-Day Weather Forecast

Advertisements
Track Severe Weather on mobile